Aérodrome :
LOGIN :

S'inscrire | Disclaimer

   EN    FR    IT 

 










Légende :    VFR   VFR Marginal   IFR   IFR Intensif   IFR Très Intensif
Visi : 
Plafond : 
>= 8 km
>= 3000ft
5 à 8 km
1000 à 3000 ft
1500m à 5 km
500 à 1000 ft
800 à 1500m
200 à 500 ft
< 800m
< 200 ft
Symboles :   Orages  Brouillard  Fortes neiges  Fortes précipitations  Vent > 20 kt
SIGMETs :   Divers  Orages  Givrage  Turbulence  Onde Orograph.  Cendres Volcan.







- Altitude de l'aérodrome : 327 ft
- Code IATA : BHX
- Voir les cartes d'approche


EGBB - Birmingham

DERNIER METAR :
  • 230720Z 26009KT 220V290 9999 FEW020 07/02 Q0991

METARs EXPIRÉS :
  • 230650Z 27011KT 230V290 9999 FEW022 07/03 Q0990
  • 230620Z 29013KT 9999 SCT016 07/05 Q0989
  • 230550Z 28012G23KT 9999 FEW021 SCT027 08/05 Q0988
  • 230520Z 27014G24KT 9999 SCT013 SCT018 BKN024 10/06 Q0986
  • 230450Z 26012G23KT 220V280 9999 SCT010 SCT014 BKN030 11/08 Q0984
  • 230420Z 22009KT 180V260 9999 BKN009 OVC019 12/10 Q0984

TAF TAF EGBB
Valide du 23 à 06h jusqu'au 24 à 06h UTC


230501Z 2306/2406 27015KT 9999 SCT015
TEMPO 2306/2308 7000 RA BKN012
PROB30
TEMPO 2310/2315 24017G27KT 7000 SHRA
BECMG 2320/2323 20004KT
ATIS : +44 121 780 0910
Pas de NOTAMs connus pour ce terrain.
1 SIGMET publié pour la FIR London (EGTT) :
 
Turbulence forte
EGTT SIGMET 02 VALID 230600/231000 EGRR
EGTT LONDON FIR SEV TURB FCST E OF LINE N5000 W00015 - N5500 E00258 SFC/FL060 MOV E 20KT WKN=



MET'MAP, la Météo Aéronautique d'un coup d'oeil ! - Copyright ORBIFLY Décembre 2007 - Disclaimer

ORBIFLY MET'MAP TEAM :

Programmation & Développement : Alexandra Zaïnal
Conception & Développement : Baudouin d'Aumeries
Co-Programmation & Développement : Marc-Olivier Méhu
Soutien technique & logistique : Manuel Goepfert

Contact : metmap@orbifly.com




SOURCES & CREDITS :

   NOAA